Shirley, Massachusetts
Current Conditions -  °F | °C
As of 12:52 AM on Sunday 21 Dec 2014 (Local Time) from KFIT Reporting Station
Overcast Overcast  
Wind Chill: 32°   Ceiling: 3100
Heat Index: 32°   Visibility: 10mi
Dew Point: 23°   Wind: 3mph
Humidity: 69%   Direction: 320°NW
Pressure: 30.29"   Gusts: NA
Location:  42.54°N, 71.65°W
Report Text: KFIT 210552Z AUTO 32003KT 10SM BKN031 OVC060 00/M05 A3029 RMK AO2 SLP261 T00001050 10006 20000 58005
Loading
Personal Weather Stations






























Interactive Weather Map New forecast layout! Learn more

10-Day Weather Forecast

Advertisements
Track Severe Weather on mobile